createdAt,value
2022-08-17T00:02:26.100Z,99.90
2022-08-17T00:04:55.015Z,99.90
2022-08-17T00:07:22.218Z,99.90
2022-08-17T00:09:49.252Z,99.90
2022-08-17T00:12:42.997Z,99.90
2022-08-17T00:15:05.823Z,99.90
2022-08-17T00:17:35.420Z,99.90
2022-08-17T00:20:02.293Z,99.90
2022-08-17T00:22:32.061Z,99.90
2022-08-17T00:25:07.986Z,99.90
2022-08-17T00:27:36.067Z,99.90
2022-08-17T00:30:05.978Z,99.90
2022-08-17T00:33:14.163Z,99.90
2022-08-17T00:35:33.647Z,99.90
2022-08-17T00:38:00.471Z,99.90
2022-08-17T00:40:27.324Z,99.90
2022-08-17T00:43:22.886Z,99.90
2022-08-17T00:45:49.658Z,99.90
2022-08-17T00:48:29.491Z,99.90
2022-08-17T00:51:15.514Z,99.90
2022-08-17T00:53:44.645Z,99.90
2022-08-17T00:56:15.063Z,99.90
2022-08-17T00:58:41.854Z,99.90
2022-08-17T01:01:11.342Z,99.90
2022-08-17T01:03:39.274Z,99.90
2022-08-17T01:06:07.027Z,99.90
2022-08-17T01:08:34.818Z,99.90
2022-08-17T01:11:02.462Z,99.90
2022-08-17T01:13:42.075Z,99.90
2022-08-17T01:16:26.526Z,99.90
2022-08-17T01:19:04.424Z,99.90
2022-08-17T01:21:46.539Z,99.90
2022-08-17T01:24:13.780Z,99.90
2022-08-17T01:26:43.951Z,99.90
2022-08-17T01:29:12.601Z,99.90
2022-08-17T01:31:48.863Z,99.90
2022-08-17T01:34:17.581Z,99.90
2022-08-17T01:36:47.274Z,99.90
2022-08-17T01:39:31.065Z,99.90
2022-08-17T01:42:31.463Z,99.90
2022-08-17T01:45:05.843Z,99.90
2022-08-17T01:47:32.718Z,99.90
2022-08-17T01:50:15.909Z,99.90
2022-08-17T01:52:45.746Z,99.90
2022-08-17T01:55:14.522Z,99.90
2022-08-17T01:57:41.572Z,99.90
2022-08-17T02:00:10.713Z,99.90
2022-08-17T02:02:38.043Z,99.90
2022-08-17T02:05:06.036Z,99.90
2022-08-17T02:07:33.183Z,99.90
2022-08-17T02:10:20.516Z,99.90
2022-08-17T02:12:48.886Z,99.90
2022-08-17T02:15:16.134Z,99.90
2022-08-17T02:17:43.404Z,99.90
2022-08-17T02:20:10.829Z,99.90
2022-08-17T02:22:39.483Z,99.90
2022-08-17T02:25:09.869Z,99.90
2022-08-17T02:27:37.431Z,99.90
2022-08-17T02:30:59.287Z,99.90
2022-08-17T02:32:59.214Z,99.90
2022-08-17T02:35:31.175Z,99.90
2022-08-17T02:37:58.127Z,99.90
2022-08-17T02:40:35.734Z,99.90
2022-08-17T02:43:04.219Z,99.90
2022-08-17T02:45:31.099Z,99.90
2022-08-17T02:47:57.948Z,99.90
2022-08-17T02:50:25.229Z,99.90
2022-08-17T02:53:02.014Z,99.90
2022-08-17T02:55:40.259Z,99.90
2022-08-17T02:58:10.421Z,99.90
2022-08-17T03:00:42.404Z,99.90
2022-08-17T03:03:13.425Z,99.90
2022-08-17T03:05:40.792Z,99.90
2022-08-17T03:08:11.692Z,99.90
2022-08-17T03:10:41.417Z,99.90
2022-08-17T03:13:08.826Z,99.90
2022-08-17T03:15:35.855Z,99.90
2022-08-17T03:18:07.718Z,99.90
2022-08-17T03:20:46.652Z,99.90
2022-08-17T03:23:13.537Z,99.90
2022-08-17T03:25:44.079Z,99.90
2022-08-17T03:28:11.998Z,99.90
2022-08-17T03:30:39.989Z,99.90
2022-08-17T03:33:10.182Z,99.90
2022-08-17T03:35:40.278Z,99.90
2022-08-17T03:38:10.077Z,99.90
2022-08-17T03:40:56.648Z,99.90
2022-08-17T03:43:26.027Z,99.90
2022-08-17T03:46:28.896Z,99.90
2022-08-17T03:49:16.914Z,99.90
2022-08-17T03:52:02.230Z,99.90
2022-08-17T03:54:47.907Z,99.90
2022-08-17T03:57:14.868Z,99.90
2022-08-17T03:59:42.349Z,99.90
2022-08-17T04:02:16.232Z,99.90
2022-08-17T04:04:43.240Z,99.90
2022-08-17T04:07:10.156Z,99.90
2022-08-17T04:09:37.091Z,99.90
2022-08-17T04:12:05.260Z,99.90
2022-08-17T04:14:39.336Z,99.90
2022-08-17T04:17:20.123Z,99.90
2022-08-17T04:19:47.205Z,99.90
2022-08-17T04:22:31.263Z,99.90
2022-08-17T04:25:09.537Z,99.90
2022-08-17T04:27:38.029Z,99.90
2022-08-17T04:30:07.267Z,99.90
2022-08-17T04:33:04.943Z,99.90
2022-08-17T04:35:40.787Z,99.90
2022-08-17T04:38:10.144Z,99.90
2022-08-17T04:40:56.060Z,99.90
2022-08-17T04:43:26.080Z,99.90
2022-08-17T04:46:02.881Z,99.90
2022-08-17T04:48:39.992Z,99.90
2022-08-17T04:51:15.103Z,99.90
2022-08-17T04:53:46.583Z,99.90
2022-08-17T04:56:22.134Z,99.90
2022-08-17T04:58:56.123Z,99.90
2022-08-17T05:01:25.458Z,99.90
2022-08-17T05:03:56.146Z,99.90
2022-08-17T05:06:23.480Z,99.90
2022-08-17T05:08:50.638Z,99.90
2022-08-17T05:11:18.087Z,99.90
2022-08-17T05:13:45.245Z,99.90
2022-08-17T05:16:12.625Z,99.90
2022-08-17T05:18:39.639Z,99.90
2022-08-17T05:21:07.135Z,99.90
2022-08-17T05:23:42.515Z,99.90
2022-08-17T05:26:25.819Z,99.90
2022-08-17T05:28:55.463Z,99.90
2022-08-17T05:31:24.395Z,99.90
2022-08-17T05:33:51.324Z,99.90
2022-08-17T05:36:42.516Z,99.90
2022-08-17T05:39:05.159Z,99.90
2022-08-17T05:41:32.103Z,99.90
2022-08-17T05:43:59.019Z,99.90
2022-08-17T05:46:30.367Z,99.90
2022-08-17T05:49:03.436Z,99.90
2022-08-17T05:52:11.755Z,99.90
2022-08-17T05:55:10.147Z,99.90
2022-08-17T05:57:57.677Z,99.90
2022-08-17T06:00:31.248Z,99.90
2022-08-17T06:03:40.234Z,99.90
2022-08-17T06:07:10.000Z,99.90
2022-08-17T06:09:54.247Z,99.90
2022-08-17T06:13:12.343Z,99.90
2022-08-17T06:16:28.172Z,99.90
2022-08-17T06:19:14.728Z,99.90
2022-08-17T06:21:47.192Z,99.90
2022-08-17T06:24:39.220Z,99.90
2022-08-17T06:27:36.531Z,99.90
2022-08-17T06:30:15.645Z,99.90
2022-08-17T06:32:45.699Z,99.90
2022-08-17T06:35:21.996Z,99.90
2022-08-17T06:38:38.093Z,99.90
2022-08-17T06:41:23.701Z,99.90
2022-08-17T06:44:06.547Z,99.90
2022-08-17T06:46:48.574Z,99.90
2022-08-17T06:49:55.603Z,99.90
2022-08-17T06:52:46.879Z,99.90
2022-08-17T06:55:26.912Z,99.90
2022-08-17T06:58:02.051Z,99.90
2022-08-17T07:00:41.755Z,99.90
2022-08-17T07:03:08.894Z,99.90
2022-08-17T07:05:54.107Z,99.90
2022-08-17T07:08:53.449Z,99.90
2022-08-17T07:11:34.370Z,99.90
2022-08-17T07:14:07.267Z,99.90
2022-08-17T07:16:46.784Z,99.90
2022-08-17T07:19:16.759Z,99.90
2022-08-17T07:22:18.659Z,99.90
2022-08-17T07:25:03.530Z,99.90
2022-08-17T07:27:51.140Z,99.90
2022-08-17T07:30:47.344Z,99.90
2022-08-17T07:33:26.106Z,99.90
2022-08-17T07:35:53.554Z,99.90
2022-08-17T07:38:30.376Z,99.90
2022-08-17T07:40:58.150Z,99.90
2022-08-17T07:43:29.448Z,99.90
2022-08-17T07:46:30.334Z,99.90
2022-08-17T07:49:08.838Z,99.90
2022-08-17T07:51:37.467Z,99.90
2022-08-17T07:54:24.885Z,99.90
2022-08-17T07:57:08.420Z,99.90
2022-08-17T07:59:41.227Z,99.90
2022-08-17T08:02:17.094Z,99.90
2022-08-17T08:05:00.546Z,99.90
2022-08-17T08:07:32.041Z,99.90
2022-08-17T08:10:33.515Z,99.90
2022-08-17T08:13:23.954Z,99.90
2022-08-17T08:16:12.513Z,99.90
2022-08-17T08:18:55.999Z,99.90
2022-08-17T08:21:31.755Z,99.90
2022-08-17T08:24:30.769Z,99.90
2022-08-17T08:27:11.487Z,99.90
2022-08-17T08:29:53.477Z,99.90
2022-08-17T08:32:23.065Z,99.90
2022-08-17T08:35:05.412Z,99.90
2022-08-17T08:37:42.629Z,99.90
2022-08-17T08:40:31.856Z,99.90
2022-08-17T08:43:17.085Z,99.90
2022-08-17T08:46:09.909Z,99.90
2022-08-17T08:49:10.106Z,99.90
2022-08-17T08:51:56.423Z,99.90
2022-08-17T08:54:47.495Z,99.90
2022-08-17T08:57:33.512Z,99.90
2022-08-17T09:00:04.074Z,99.90
2022-08-17T09:03:04.838Z,99.90
2022-08-17T09:06:03.685Z,99.90
2022-08-17T09:08:53.776Z,99.90
2022-08-17T09:11:25.193Z,99.90
2022-08-17T09:13:57.868Z,99.90
2022-08-17T09:16:39.168Z,99.90
2022-08-17T09:19:30.813Z,99.90
2022-08-17T09:22:12.055Z,99.90
2022-08-17T09:24:47.749Z,99.90
2022-08-17T09:27:19.689Z,99.90
2022-08-17T09:29:50.745Z,99.90
2022-08-17T09:32:49.949Z,99.90
2022-08-17T09:35:20.214Z,99.90
2022-08-17T09:37:59.650Z,99.90
2022-08-17T09:40:37.885Z,99.90
2022-08-17T09:43:25.268Z,99.90
2022-08-17T09:46:09.964Z,99.90
2022-08-17T09:48:44.017Z,99.90
2022-08-17T09:51:15.927Z,99.90
2022-08-17T09:53:44.711Z,99.90
2022-08-17T09:56:31.607Z,99.90
2022-08-17T09:59:11.354Z,99.90
2022-08-17T10:02:00.425Z,99.90
2022-08-17T10:05:18.038Z,99.90
2022-08-17T10:08:21.885Z,99.90
2022-08-17T10:11:14.070Z,99.90
2022-08-17T10:14:02.773Z,99.90
2022-08-17T10:17:21.074Z,99.90
2022-08-17T10:20:19.255Z,99.90
2022-08-17T10:23:11.802Z,99.90
2022-08-17T10:26:08.418Z,99.90
2022-08-17T10:28:46.263Z,99.90
2022-08-17T10:31:34.147Z,99.90
2022-08-17T10:34:20.665Z,99.90
2022-08-17T10:37:06.423Z,99.90
2022-08-17T10:40:17.938Z,99.90
2022-08-17T10:43:00.049Z,99.90
2022-08-17T10:46:10.407Z,99.90
2022-08-17T10:48:42.612Z,99.90
2022-08-17T10:51:12.629Z,99.90
2022-08-17T10:53:49.730Z,99.90
2022-08-17T10:56:17.904Z,99.90
2022-08-17T10:58:54.632Z,99.90
2022-08-17T11:01:41.745Z,99.20
2022-08-17T11:04:21.349Z,99.00
2022-08-17T11:07:02.360Z,98.80
2022-08-17T11:09:44.420Z,98.70
2022-08-17T11:12:42.368Z,98.80
2022-08-17T11:15:31.349Z,98.50
2022-08-17T11:18:07.099Z,97.90
2022-08-17T11:20:47.101Z,97.70
2022-08-17T11:23:26.088Z,97.90
2022-08-17T11:25:56.861Z,97.50
2022-08-17T11:28:34.251Z,97.10
2022-08-17T11:31:38.872Z,97.10
2022-08-17T11:34:21.467Z,97.00
2022-08-17T11:37:03.818Z,96.90
2022-08-17T11:40:08.448Z,96.70
2022-08-17T11:43:03.479Z,96.70
2022-08-17T11:45:56.228Z,96.80
2022-08-17T11:49:00.339Z,96.70
2022-08-17T11:51:52.792Z,96.50
2022-08-17T11:54:33.441Z,96.40
2022-08-17T11:57:25.746Z,96.20
2022-08-17T12:00:10.421Z,96.10
2022-08-17T12:02:48.130Z,96.10
2022-08-17T12:05:16.884Z,96.00
2022-08-17T12:07:48.507Z,95.90
2022-08-17T12:10:17.242Z,96.00
2022-08-17T12:12:44.184Z,96.00
2022-08-17T12:15:20.029Z,95.70
2022-08-17T12:17:54.973Z,95.80
2022-08-17T12:21:12.068Z,95.60
2022-08-17T12:23:50.145Z,95.30
2022-08-17T12:26:22.588Z,95.00
2022-08-17T12:28:52.009Z,94.50
2022-08-17T12:31:27.194Z,94.30
2022-08-17T12:33:54.557Z,94.10
2022-08-17T12:36:25.777Z,93.60
2022-08-17T12:39:13.899Z,93.00
2022-08-17T12:41:44.422Z,92.90
2022-08-17T12:44:12.042Z,92.80
2022-08-17T12:47:00.639Z,92.80
2022-08-17T12:49:35.910Z,92.70
2022-08-17T12:52:19.385Z,92.50
2022-08-17T12:54:49.961Z,92.40
2022-08-17T12:57:44.470Z,92.40
2022-08-17T13:00:22.369Z,92.50
2022-08-17T13:02:53.207Z,92.50
2022-08-17T13:05:42.138Z,92.60
2022-08-17T13:08:20.956Z,92.60
2022-08-17T13:10:56.898Z,92.50
2022-08-17T13:13:29.908Z,92.60
2022-08-17T13:16:23.715Z,92.70
2022-08-17T13:19:08.560Z,92.80
2022-08-17T13:21:36.352Z,92.90
2022-08-17T13:24:13.730Z,92.80
2022-08-17T13:26:42.828Z,93.00
2022-08-17T13:29:23.292Z,93.10
2022-08-17T13:32:13.706Z,93.30
2022-08-17T13:35:12.591Z,93.30
2022-08-17T13:37:35.173Z,93.20
2022-08-17T13:40:08.025Z,93.30
2022-08-17T13:42:52.967Z,93.40
2022-08-17T13:45:39.515Z,93.50
2022-08-17T13:48:13.655Z,93.60
2022-08-17T13:50:46.898Z,93.80
2022-08-17T13:53:16.706Z,93.90
2022-08-17T13:55:59.922Z,94.10
2022-08-17T13:58:29.741Z,93.90
2022-08-17T14:00:56.802Z,93.80
2022-08-17T14:03:23.917Z,93.90
2022-08-17T14:05:51.747Z,93.70
2022-08-17T14:08:19.541Z,94.30
2022-08-17T14:10:49.569Z,93.70
2022-08-17T14:13:16.358Z,96.90
2022-08-17T14:15:55.132Z,97.00
2022-08-17T14:18:55.768Z,93.90
2022-08-17T14:21:11.210Z,93.80
2022-08-17T14:23:38.392Z,93.80
2022-08-17T14:26:05.258Z,93.90
2022-08-17T14:28:32.166Z,93.90
2022-08-17T14:31:01.992Z,93.90
2022-08-17T14:33:29.127Z,94.20
2022-08-17T14:35:57.592Z,93.90
2022-08-17T14:38:24.669Z,93.90
2022-08-17T14:40:51.677Z,94.00
2022-08-17T14:43:18.751Z,93.90
2022-08-17T14:45:45.504Z,94.00
2022-08-17T14:48:12.414Z,95.10
2022-08-17T14:50:41.528Z,94.50
2022-08-17T14:53:11.467Z,94.50
2022-08-17T14:55:40.619Z,94.40
2022-08-17T14:58:08.739Z,94.40
2022-08-17T15:00:35.994Z,94.40
2022-08-17T15:03:02.984Z,94.30
2022-08-17T15:05:33.528Z,94.40
2022-08-17T15:08:01.389Z,94.40
2022-08-17T15:10:29.184Z,94.50
2022-08-17T15:12:56.287Z,94.40
2022-08-17T15:15:23.100Z,94.40
2022-08-17T15:17:51.165Z,94.30
2022-08-17T15:20:21.337Z,94.40
2022-08-17T15:22:55.421Z,94.50
2022-08-17T15:25:23.894Z,94.70
2022-08-17T15:27:50.876Z,95.20
2022-08-17T15:30:18.023Z,95.60
2022-08-17T15:32:50.885Z,96.00
2022-08-17T15:35:26.903Z,96.40
2022-08-17T15:38:04.952Z,96.70
2022-08-17T15:40:46.301Z,96.80
2022-08-17T15:43:17.042Z,97.30
2022-08-17T15:45:44.518Z,97.60
2022-08-17T15:48:40.606Z,97.80
2022-08-17T15:51:08.381Z,98.50
2022-08-17T15:53:35.668Z,98.70
2022-08-17T15:56:03.399Z,99.00
2022-08-17T15:58:33.481Z,99.30
2022-08-17T16:01:14.383Z,99.80
2022-08-17T16:04:03.912Z,99.90
2022-08-17T16:06:31.200Z,99.90
2022-08-17T16:08:59.372Z,99.90
2022-08-17T16:11:26.524Z,99.90
2022-08-17T16:14:05.790Z,99.90
2022-08-17T16:16:32.853Z,99.90
2022-08-17T16:18:59.672Z,99.90
2022-08-17T16:21:27.128Z,99.90
2022-08-17T16:23:56.305Z,99.90
2022-08-17T16:26:23.205Z,99.90
2022-08-17T16:28:50.586Z,99.90
2022-08-17T16:31:17.528Z,99.90
2022-08-17T16:34:15.898Z,99.90
2022-08-17T16:36:32.028Z,99.90
2022-08-17T16:38:59.390Z,99.90
2022-08-17T16:41:45.118Z,99.90
2022-08-17T16:44:16.566Z,99.90
2022-08-17T16:46:45.416Z,99.90
2022-08-17T16:49:24.370Z,99.90
2022-08-17T16:52:01.664Z,99.90
2022-08-17T16:54:28.445Z,99.90
2022-08-17T16:56:55.187Z,99.90
2022-08-17T16:59:30.720Z,99.90
2022-08-17T17:02:10.840Z,99.90
2022-08-17T17:04:51.996Z,99.90
2022-08-17T17:07:32.236Z,99.90
2022-08-17T17:09:59.885Z,99.90
2022-08-17T17:12:58.124Z,99.90
2022-08-17T17:15:20.087Z,99.90
2022-08-17T17:17:49.546Z,99.90
2022-08-17T17:20:19.213Z,99.90
2022-08-17T17:23:19.418Z,99.90
2022-08-17T17:26:01.785Z,99.90
2022-08-17T17:28:55.726Z,99.90
2022-08-17T17:31:25.892Z,99.90
2022-08-17T17:33:57.423Z,99.90
2022-08-17T17:36:50.733Z,99.90
2022-08-17T17:39:20.417Z,99.90
2022-08-17T17:41:56.460Z,99.80
2022-08-17T17:44:26.072Z,99.60
2022-08-17T17:46:54.949Z,99.40
2022-08-17T17:49:22.131Z,99.50
2022-08-17T17:52:12.260Z,99.50
2022-08-17T17:54:52.694Z,99.40
2022-08-17T17:57:29.934Z,99.60
2022-08-17T18:00:20.577Z,99.10
2022-08-17T18:03:08.336Z,99.00
2022-08-17T18:06:06.256Z,99.00
2022-08-17T18:08:38.812Z,99.00
2022-08-17T18:11:24.488Z,98.90
2022-08-17T18:14:21.614Z,99.00
2022-08-17T18:16:54.288Z,99.10
2022-08-17T18:19:21.475Z,99.10
2022-08-17T18:22:14.164Z,99.20
2022-08-17T18:24:44.536Z,99.10
2022-08-17T18:27:32.059Z,99.20
2022-08-17T18:30:24.296Z,99.70
2022-08-17T18:32:51.242Z,99.90
2022-08-17T18:35:18.007Z,99.90
2022-08-17T18:37:46.402Z,99.90
2022-08-17T18:40:16.223Z,99.90
2022-08-17T18:42:45.728Z,99.90
2022-08-17T18:45:13.317Z,99.90
2022-08-17T18:47:54.584Z,99.90
2022-08-17T18:50:23.389Z,99.90
2022-08-17T18:52:51.395Z,99.90
2022-08-17T18:55:24.217Z,99.90
2022-08-17T18:57:57.102Z,99.90
2022-08-17T19:00:41.436Z,99.90
2022-08-17T19:03:20.149Z,99.90
2022-08-17T19:06:15.491Z,99.90
2022-08-17T19:08:42.457Z,99.90
2022-08-17T19:11:32.862Z,99.90
2022-08-17T19:14:12.236Z,99.90
2022-08-17T19:16:53.699Z,99.90
2022-08-17T19:19:41.249Z,99.90
2022-08-17T19:22:28.498Z,99.90
2022-08-17T19:25:17.052Z,99.90
2022-08-17T19:28:22.185Z,99.90
2022-08-17T19:31:03.356Z,99.90
2022-08-17T19:33:31.366Z,99.90
2022-08-17T19:36:06.809Z,99.90
2022-08-17T19:38:52.935Z,99.90
2022-08-17T19:41:26.043Z,99.90
2022-08-17T19:44:01.784Z,99.90
2022-08-17T19:47:26.160Z,99.90
2022-08-17T19:50:13.866Z,99.90
2022-08-17T19:53:09.469Z,99.90
2022-08-17T19:55:51.969Z,99.90
2022-08-17T19:58:44.797Z,99.90
2022-08-17T20:01:29.950Z,99.90
2022-08-17T20:04:11.626Z,99.90
2022-08-17T20:06:43.191Z,99.90
2022-08-17T20:09:45.691Z,99.90
2022-08-17T20:12:23.477Z,99.90
2022-08-17T20:14:57.842Z,99.90
2022-08-17T20:17:31.175Z,99.90
2022-08-17T20:20:30.772Z,99.90
2022-08-17T20:23:26.234Z,99.90
2022-08-17T20:25:57.679Z,99.90
2022-08-17T20:28:30.443Z,99.90
2022-08-17T20:30:58.344Z,99.90
2022-08-17T20:33:36.121Z,99.90
2022-08-17T20:36:12.098Z,99.90
2022-08-17T20:38:43.453Z,99.90
2022-08-17T20:41:20.943Z,99.90
2022-08-17T20:43:57.129Z,99.90
2022-08-17T20:46:32.975Z,99.90
2022-08-17T20:49:30.514Z,99.90
2022-08-17T20:52:09.268Z,99.90
2022-08-17T20:54:58.006Z,99.90
2022-08-17T20:57:47.452Z,99.90
2022-08-17T21:00:29.943Z,99.90
2022-08-17T21:03:22.496Z,99.90
2022-08-17T21:09:29.656Z,99.90
2022-08-17T21:12:04.545Z,99.90
2022-08-17T21:14:51.639Z,99.90
2022-08-17T21:17:47.272Z,99.90
2022-08-17T21:20:38.666Z,99.90
2022-08-17T21:23:32.731Z,99.90
2022-08-17T21:26:50.500Z,99.90
2022-08-17T21:29:31.151Z,99.90
2022-08-17T21:32:06.353Z,99.90
2022-08-17T21:34:42.558Z,99.90
2022-08-17T21:37:29.696Z,99.90
2022-08-17T21:40:19.575Z,99.90
2022-08-17T21:42:53.906Z,99.90
2022-08-17T21:45:35.519Z,99.90
2022-08-17T21:48:17.231Z,99.90
2022-08-17T21:51:02.865Z,99.90
2022-08-17T21:53:46.791Z,99.90
2022-08-17T21:56:38.228Z,99.90
2022-08-17T21:59:19.895Z,99.90
2022-08-17T22:01:58.551Z,99.90
2022-08-17T22:04:34.885Z,99.90
2022-08-17T22:07:06.044Z,99.90
2022-08-17T22:09:35.714Z,99.90
2022-08-17T22:12:12.828Z,99.90
2022-08-17T22:14:52.217Z,99.90
2022-08-17T22:17:28.397Z,99.90
2022-08-17T22:20:14.313Z,99.90
2022-08-17T22:23:08.887Z,99.90
2022-08-17T22:25:56.675Z,99.90
2022-08-17T22:28:48.881Z,99.90
2022-08-17T22:31:25.361Z,99.90
2022-08-17T22:34:12.977Z,99.90
2022-08-17T22:36:41.771Z,99.90
2022-08-17T22:39:08.631Z,99.90
2022-08-17T22:41:48.141Z,99.90
2022-08-17T22:44:28.311Z,99.90
2022-08-17T22:47:11.121Z,99.90
2022-08-17T22:50:00.456Z,99.90
2022-08-17T22:53:18.875Z,99.90
2022-08-17T22:56:13.263Z,99.90
2022-08-17T22:59:11.539Z,99.90
2022-08-17T23:01:39.677Z,99.90
2022-08-17T23:04:15.984Z,99.90
2022-08-17T23:06:42.949Z,99.90
2022-08-17T23:09:10.151Z,99.90
2022-08-17T23:11:49.547Z,99.90
2022-08-17T23:14:21.501Z,99.90
2022-08-17T23:16:50.314Z,99.90
2022-08-17T23:19:21.078Z,99.90
2022-08-17T23:21:52.488Z,99.90
2022-08-17T23:24:26.577Z,99.90
2022-08-17T23:26:57.008Z,99.90
2022-08-17T23:29:25.471Z,99.90
2022-08-17T23:31:52.943Z,99.90
2022-08-17T23:34:19.993Z,99.90
2022-08-17T23:36:50.619Z,99.90
2022-08-17T23:39:27.843Z,99.90
2022-08-17T23:41:58.249Z,99.90
2022-08-17T23:44:25.585Z,99.90
2022-08-17T23:46:53.547Z,99.90
2022-08-17T23:49:20.636Z,99.90
2022-08-17T23:51:48.574Z,99.90
2022-08-17T23:54:28.935Z,99.90
2022-08-17T23:56:56.188Z,99.90
2022-08-17T23:59:23.646Z,99.90
